createdAt,value
2022-08-22T00:01:39.878Z,55.74
2022-08-22T00:02:49.030Z,51.54
2022-08-22T00:04:14.031Z,55.45
2022-08-22T00:06:49.034Z,55.65
2022-08-22T00:09:29.304Z,55.34
2022-08-22T00:12:07.771Z,55.30
2022-08-22T00:14:41.111Z,55.37
2022-08-22T00:17:23.762Z,55.58
2022-08-22T00:19:55.521Z,55.77
2022-08-22T00:22:32.587Z,55.79
2022-08-22T00:25:25.605Z,55.92
2022-08-22T00:28:00.325Z,55.83
2022-08-22T00:30:29.141Z,56.00
2022-08-22T00:33:02.414Z,56.32
2022-08-22T00:35:34.310Z,56.12
2022-08-22T00:38:07.185Z,55.91
2022-08-22T00:40:49.903Z,56.13
2022-08-22T00:43:48.182Z,56.46
2022-08-22T00:46:29.512Z,56.94
2022-08-22T00:49:10.905Z,56.75
2022-08-22T00:52:14.862Z,56.93
2022-08-22T00:55:11.442Z,57.46
2022-08-22T00:57:54.583Z,57.38
2022-08-22T01:00:25.269Z,57.43
2022-08-22T01:03:12.849Z,57.18
2022-08-22T01:05:52.730Z,57.40
2022-08-22T01:08:39.357Z,57.35
2022-08-22T01:11:23.096Z,57.38
2022-08-22T01:14:10.558Z,57.64
2022-08-22T01:17:02.876Z,57.78
2022-08-22T01:20:07.670Z,57.79
2022-08-22T01:22:59.340Z,57.67
2022-08-22T01:26:05.162Z,57.95
2022-08-22T01:29:07.965Z,57.88
2022-08-22T01:32:09.762Z,57.75
2022-08-22T01:34:56.741Z,57.93
2022-08-22T01:37:47.650Z,57.95
2022-08-22T01:40:53.770Z,57.50
2022-08-22T01:43:59.193Z,58.02
2022-08-22T01:46:35.340Z,58.05
2022-08-22T01:49:11.905Z,58.07
2022-08-22T01:51:47.086Z,57.50
2022-08-22T01:54:25.172Z,57.77
2022-08-22T01:56:58.347Z,57.96
2022-08-22T01:59:42.555Z,58.10
2022-08-22T02:02:32.082Z,57.34
2022-08-22T02:05:09.234Z,57.21
2022-08-22T02:07:48.335Z,57.28
2022-08-22T02:10:22.994Z,57.22
2022-08-22T02:13:02.487Z,57.17
2022-08-22T02:15:45.241Z,57.29
2022-08-22T02:18:19.044Z,57.47
2022-08-22T02:20:58.094Z,57.38
2022-08-22T02:23:33.007Z,57.46
2022-08-22T02:26:07.347Z,57.42
2022-08-22T02:28:57.249Z,57.86
2022-08-22T02:31:37.009Z,57.98
2022-08-22T02:34:19.991Z,57.71
2022-08-22T02:36:52.283Z,58.10
2022-08-22T02:39:27.088Z,57.90
2022-08-22T02:41:58.279Z,58.55
2022-08-22T02:44:29.996Z,58.77
2022-08-22T02:47:09.680Z,58.77
2022-08-22T02:49:46.863Z,58.42
2022-08-22T02:52:18.790Z,58.09
2022-08-22T02:54:56.258Z,57.71
2022-08-22T02:57:34.556Z,57.73
2022-08-22T03:00:31.628Z,57.75
2022-08-22T03:03:06.320Z,58.29
2022-08-22T03:05:48.141Z,58.30
2022-08-22T03:08:22.432Z,58.78
2022-08-22T03:11:01.210Z,58.30
2022-08-22T03:13:40.284Z,58.10
2022-08-22T03:16:16.432Z,57.99
2022-08-22T03:18:56.223Z,58.10
2022-08-22T03:21:30.282Z,58.33
2022-08-22T03:24:05.491Z,58.50
2022-08-22T03:26:49.253Z,58.32
2022-08-22T03:29:20.324Z,58.43
2022-08-22T03:32:08.318Z,58.39
2022-08-22T03:34:35.577Z,58.46
2022-08-22T03:37:11.758Z,58.83
2022-08-22T03:39:51.306Z,58.47
2022-08-22T03:42:44.166Z,57.87
2022-08-22T03:45:26.590Z,57.82
2022-08-22T03:48:29.314Z,58.22
2022-08-22T03:51:13.418Z,58.42
2022-08-22T03:54:11.197Z,58.48
2022-08-22T03:57:18.169Z,59.31
2022-08-22T04:00:12.847Z,59.13
2022-08-22T04:03:06.066Z,59.32
2022-08-22T04:05:58.266Z,60.12
2022-08-22T04:08:51.680Z,60.53
2022-08-22T04:11:42.587Z,60.42
2022-08-22T04:14:25.478Z,60.66
2022-08-22T04:17:06.269Z,60.67
2022-08-22T04:19:49.250Z,60.61
2022-08-22T04:22:54.643Z,60.71
2022-08-22T04:25:26.842Z,60.47
2022-08-22T04:28:02.718Z,60.51
2022-08-22T04:30:35.294Z,60.34
2022-08-22T04:33:08.741Z,59.79
2022-08-22T04:35:42.772Z,60.21
2022-08-22T04:38:16.694Z,60.28
2022-08-22T04:40:50.186Z,59.89
2022-08-22T04:43:23.140Z,59.85
2022-08-22T04:45:54.968Z,59.85
2022-08-22T04:48:30.626Z,59.63
2022-08-22T04:51:00.876Z,59.37
2022-08-22T04:53:52.520Z,59.45
2022-08-22T04:56:27.245Z,59.01
2022-08-22T04:58:58.348Z,59.13
2022-08-22T05:01:37.163Z,58.85
2022-08-22T05:04:09.898Z,58.71
2022-08-22T05:06:40.152Z,58.91
2022-08-22T05:09:16.012Z,58.63
2022-08-22T05:11:43.509Z,58.16
2022-08-22T05:14:16.294Z,58.01
2022-08-22T05:16:49.343Z,58.17
2022-08-22T05:19:31.129Z,58.30
2022-08-22T05:21:58.146Z,58.48
2022-08-22T05:24:31.808Z,58.41
2022-08-22T05:27:04.795Z,58.31
2022-08-22T05:29:32.802Z,59.03
2022-08-22T05:32:02.496Z,59.17
2022-08-22T05:34:34.353Z,59.16
2022-08-22T05:37:08.385Z,58.87
2022-08-22T05:39:38.403Z,58.57
2022-08-22T05:42:13.314Z,58.64
2022-08-22T05:44:45.394Z,58.33
2022-08-22T05:47:21.741Z,58.04
2022-08-22T05:49:58.997Z,58.24
2022-08-22T05:52:39.841Z,58.05
2022-08-22T05:55:15.662Z,57.81
2022-08-22T05:57:49.285Z,57.23
2022-08-22T06:00:20.995Z,57.33
2022-08-22T06:03:00.699Z,56.78
2022-08-22T06:05:33.707Z,57.17
2022-08-22T06:08:06.110Z,56.93
2022-08-22T06:10:42.208Z,56.22
2022-08-22T06:13:15.073Z,56.16
2022-08-22T06:15:51.642Z,55.66
2022-08-22T06:18:24.610Z,55.55
2022-08-22T06:20:55.959Z,55.64
2022-08-22T06:23:26.747Z,55.20
2022-08-22T06:25:57.564Z,55.07
2022-08-22T06:28:26.668Z,55.09
2022-08-22T06:30:54.815Z,55.03
2022-08-22T06:33:25.417Z,54.70
2022-08-22T06:36:20.559Z,54.78
2022-08-22T06:38:56.345Z,54.08
2022-08-22T06:41:26.763Z,54.98
2022-08-22T06:43:54.863Z,54.52
2022-08-22T06:46:25.988Z,54.99
2022-08-22T06:48:55.266Z,54.92
2022-08-22T06:51:25.774Z,54.92
2022-08-22T06:53:57.535Z,55.24
2022-08-22T06:56:29.519Z,55.43
2022-08-22T06:58:59.653Z,55.60
2022-08-22T07:01:30.572Z,55.87
2022-08-22T07:04:00.452Z,56.33
2022-08-22T07:06:34.201Z,56.44
2022-08-22T07:09:05.667Z,56.12
2022-08-22T07:11:38.017Z,56.01
2022-08-22T07:14:06.921Z,56.36
2022-08-22T07:16:39.721Z,56.08
2022-08-22T07:19:07.953Z,55.99
2022-08-22T07:21:44.587Z,56.37
2022-08-22T07:24:15.784Z,55.29
2022-08-22T07:26:49.719Z,55.32
2022-08-22T07:29:23.313Z,55.04
2022-08-22T07:31:59.005Z,54.56
2022-08-22T07:34:40.559Z,54.48
2022-08-22T07:37:16.313Z,53.62
2022-08-22T07:39:51.096Z,54.08
2022-08-22T07:42:28.575Z,53.57
2022-08-22T07:45:07.736Z,53.01
2022-08-22T07:47:52.646Z,53.07
2022-08-22T07:50:24.558Z,52.30
2022-08-22T07:52:56.867Z,52.13
2022-08-22T07:55:26.223Z,52.15
2022-08-22T07:57:55.804Z,51.63
2022-08-22T08:00:24.085Z,51.69
2022-08-22T08:02:53.141Z,51.05
2022-08-22T08:05:24.049Z,50.90
2022-08-22T08:07:55.027Z,50.67
2022-08-22T08:10:25.656Z,49.69
2022-08-22T08:13:02.439Z,49.62
2022-08-22T08:15:32.545Z,49.79
2022-08-22T08:18:06.465Z,49.53
2022-08-22T08:20:35.789Z,49.49
2022-08-22T08:23:06.628Z,49.19
2022-08-22T08:25:48.490Z,48.17
2022-08-22T08:28:41.033Z,48.35
2022-08-22T08:31:20.419Z,48.21
2022-08-22T08:33:50.340Z,46.58
2022-08-22T08:36:34.431Z,46.88
2022-08-22T08:39:14.154Z,47.06
2022-08-22T08:41:57.946Z,47.47
2022-08-22T08:44:43.896Z,46.56
2022-08-22T08:47:28.058Z,46.00
2022-08-22T08:50:21.053Z,46.96
2022-08-22T08:53:06.672Z,46.82
2022-08-22T08:55:46.202Z,45.12
2022-08-22T08:58:34.184Z,44.34
2022-08-22T09:01:20.336Z,45.13
2022-08-22T09:04:22.318Z,44.57
2022-08-22T09:07:06.813Z,44.00
2022-08-22T09:09:52.315Z,44.51
2022-08-22T09:12:43.400Z,44.97
2022-08-22T09:15:58.556Z,45.07
2022-08-22T09:19:11.562Z,44.82
2022-08-22T09:22:14.533Z,43.83
2022-08-22T09:25:17.738Z,43.48
2022-08-22T09:27:55.810Z,42.89
2022-08-22T09:30:27.725Z,42.00
2022-08-22T09:33:00.958Z,42.15
2022-08-22T09:35:39.450Z,41.99
2022-08-22T09:38:25.758Z,41.50
2022-08-22T09:41:00.266Z,40.77
2022-08-22T09:43:37.780Z,40.78
2022-08-22T09:46:18.655Z,40.88
2022-08-22T09:49:00.776Z,40.06
2022-08-22T09:51:38.834Z,40.41
2022-08-22T09:54:23.037Z,40.55
2022-08-22T09:56:59.527Z,39.87
2022-08-22T09:59:42.850Z,38.51
2022-08-22T10:02:22.687Z,38.89
2022-08-22T10:04:58.178Z,38.92
2022-08-22T10:07:35.413Z,38.20
2022-08-22T10:10:15.678Z,38.82
2022-08-22T10:12:53.773Z,36.70
2022-08-22T10:15:33.630Z,37.70
2022-08-22T10:18:14.796Z,37.56
2022-08-22T10:20:55.129Z,37.66
2022-08-22T10:23:29.989Z,37.76
2022-08-22T10:26:12.918Z,34.73
2022-08-22T10:28:55.179Z,36.04
2022-08-22T10:31:30.253Z,36.31
2022-08-22T10:34:09.012Z,35.30
2022-08-22T10:36:45.826Z,34.93
2022-08-22T10:39:22.620Z,34.96
2022-08-22T10:42:18.573Z,35.92
2022-08-22T10:44:58.523Z,35.52
2022-08-22T10:47:35.662Z,35.47
2022-08-22T10:50:11.648Z,36.33
2022-08-22T10:52:46.903Z,37.09
2022-08-22T10:55:17.375Z,37.74
2022-08-22T10:58:02.210Z,37.41
2022-08-22T11:00:46.101Z,36.04
2022-08-22T11:03:21.827Z,35.51
2022-08-22T11:05:52.945Z,35.34
2022-08-22T11:08:34.948Z,35.67
2022-08-22T11:11:12.441Z,35.82
2022-08-22T11:13:43.573Z,36.11
2022-08-22T11:16:36.629Z,36.50
2022-08-22T11:19:38.754Z,36.79
2022-08-22T11:22:20.392Z,35.91
2022-08-22T11:25:13.930Z,35.17
2022-08-22T11:27:51.455Z,34.64
2022-08-22T11:30:24.040Z,35.46
2022-08-22T11:33:20.334Z,36.25
2022-08-22T11:35:56.132Z,36.76
2022-08-22T11:38:38.695Z,37.16
2022-08-22T11:41:11.397Z,36.99
2022-08-22T11:43:48.824Z,36.42
2022-08-22T11:46:23.547Z,36.19
2022-08-22T11:49:09.038Z,35.75
2022-08-22T11:51:58.003Z,34.63
2022-08-22T11:54:33.606Z,34.54
2022-08-22T11:57:06.542Z,34.62
2022-08-22T11:59:56.068Z,34.82
2022-08-22T12:02:31.168Z,35.27
2022-08-22T12:05:04.787Z,35.15
2022-08-22T12:07:39.253Z,35.17
2022-08-22T12:10:15.090Z,35.00
2022-08-22T12:12:55.621Z,35.18
2022-08-22T12:15:27.830Z,34.64
2022-08-22T12:18:21.765Z,35.14
2022-08-22T12:21:09.801Z,35.81
2022-08-22T12:23:55.910Z,36.55
2022-08-22T12:26:30.892Z,36.36
2022-08-22T12:29:18.564Z,36.56
2022-08-22T12:32:33.966Z,36.12
2022-08-22T12:35:29.698Z,36.60
2022-08-22T12:38:29.104Z,35.91
2022-08-22T12:41:28.267Z,35.59
2022-08-22T12:44:17.114Z,35.02
2022-08-22T12:47:00.848Z,35.46
2022-08-22T12:49:44.932Z,35.34
2022-08-22T12:52:28.493Z,35.66
2022-08-22T12:55:17.944Z,35.37
2022-08-22T12:57:56.138Z,35.81
2022-08-22T13:00:31.884Z,35.78
2022-08-22T13:03:03.162Z,35.00
2022-08-22T13:05:34.369Z,35.72
2022-08-22T13:08:12.706Z,35.04
2022-08-22T13:10:44.907Z,35.20
2022-08-22T13:13:28.237Z,34.76
2022-08-22T13:16:06.610Z,35.06
2022-08-22T13:18:37.870Z,35.37
2022-08-22T13:21:12.712Z,34.20
2022-08-22T13:23:45.368Z,34.91
2022-08-22T13:26:32.004Z,34.70
2022-08-22T13:29:25.228Z,34.56
2022-08-22T13:31:56.228Z,34.42
2022-08-22T13:34:39.834Z,35.29
2022-08-22T13:37:11.680Z,34.52
2022-08-22T13:39:44.285Z,34.98
2022-08-22T13:42:20.398Z,34.29
2022-08-22T13:45:02.503Z,35.04
2022-08-22T13:47:32.342Z,35.20
2022-08-22T13:50:08.829Z,35.01
2022-08-22T13:52:39.064Z,35.81
2022-08-22T13:55:12.716Z,33.21
2022-08-22T13:57:44.896Z,33.66
2022-08-22T14:00:59.850Z,34.52
2022-08-22T14:03:35.338Z,35.57
2022-08-22T14:06:35.506Z,34.58
2022-08-22T14:09:13.968Z,35.53
2022-08-22T14:11:45.821Z,34.85
2022-08-22T14:14:22.422Z,33.58
2022-08-22T14:16:53.554Z,34.48
2022-08-22T14:19:27.378Z,32.16
2022-08-22T14:21:59.594Z,33.62
2022-08-22T14:24:30.725Z,32.48
2022-08-22T14:27:05.441Z,30.35
2022-08-22T14:29:41.806Z,31.82
2022-08-22T14:32:35.281Z,34.23
2022-08-22T14:35:21.660Z,34.06
2022-08-22T14:37:57.403Z,32.39
2022-08-22T14:40:29.725Z,32.08
2022-08-22T14:43:06.102Z,32.98
2022-08-22T14:45:37.964Z,33.39
2022-08-22T14:48:30.556Z,34.58
2022-08-22T14:51:03.843Z,33.55
2022-08-22T14:53:33.617Z,31.41
2022-08-22T14:56:06.377Z,33.39
2022-08-22T14:58:36.748Z,32.36
2022-08-22T15:01:11.091Z,33.36
2022-08-22T15:03:40.926Z,34.41
2022-08-22T15:06:12.472Z,35.32
2022-08-22T15:08:47.970Z,36.26
2022-08-22T15:11:23.046Z,35.93
2022-08-22T15:14:01.720Z,35.89
2022-08-22T15:16:33.350Z,35.87
2022-08-22T15:19:03.251Z,35.22
2022-08-22T15:21:32.221Z,35.13
2022-08-22T15:24:09.895Z,34.84
2022-08-22T15:26:41.157Z,32.88
2022-08-22T15:29:16.217Z,34.98
2022-08-22T15:31:46.868Z,35.54
2022-08-22T15:34:24.348Z,35.53
2022-08-22T15:37:26.154Z,35.72
2022-08-22T15:40:03.024Z,35.43
2022-08-22T15:42:37.553Z,33.34
2022-08-22T15:45:05.809Z,35.16
2022-08-22T15:47:39.313Z,34.29
2022-08-22T15:50:14.647Z,35.52
2022-08-22T15:53:08.909Z,35.47
2022-08-22T15:55:37.087Z,35.30
2022-08-22T15:58:10.104Z,35.76
2022-08-22T16:00:43.838Z,36.10
2022-08-22T16:03:23.892Z,35.26
2022-08-22T16:05:55.976Z,35.74
2022-08-22T16:08:27.952Z,35.64
2022-08-22T16:11:32.444Z,36.53
2022-08-22T16:14:22.189Z,37.08
2022-08-22T16:16:56.272Z,37.38
2022-08-22T16:19:24.744Z,35.52
2022-08-22T16:22:19.764Z,35.20
2022-08-22T16:25:06.664Z,35.39
2022-08-22T16:27:50.409Z,33.03
2022-08-22T16:30:32.482Z,31.63
2022-08-22T16:32:59.801Z,33.75
2022-08-22T16:36:03.976Z,31.10
2022-08-22T16:38:41.619Z,33.17
2022-08-22T16:41:25.323Z,31.86
2022-08-22T16:44:30.731Z,30.84
2022-08-22T16:47:09.248Z,30.56
2022-08-22T16:49:53.647Z,33.87
2022-08-22T16:52:55.556Z,35.63
2022-08-22T16:55:47.528Z,36.96
2022-08-22T16:58:56.179Z,38.08
2022-08-22T17:01:44.038Z,38.19
2022-08-22T17:04:20.472Z,38.02
2022-08-22T17:07:02.210Z,38.67
2022-08-22T17:09:49.324Z,38.99
2022-08-22T17:12:30.534Z,37.82
2022-08-22T17:15:07.284Z,38.76
2022-08-22T17:17:49.511Z,35.15
2022-08-22T17:20:28.012Z,34.95
2022-08-22T17:23:00.160Z,33.72
2022-08-22T17:25:34.815Z,33.76
2022-08-22T17:28:18.153Z,35.57
2022-08-22T17:30:55.688Z,37.31
2022-08-22T17:33:35.270Z,36.50
2022-08-22T17:36:21.087Z,36.37
2022-08-22T17:39:03.680Z,37.09
2022-08-22T17:41:38.267Z,36.83
2022-08-22T17:44:18.549Z,37.62
2022-08-22T17:46:50.793Z,38.37
2022-08-22T17:49:28.723Z,36.22
2022-08-22T17:51:59.972Z,38.14
2022-08-22T17:54:35.493Z,37.46
2022-08-22T17:57:06.481Z,38.82
2022-08-22T17:59:47.562Z,39.94
2022-08-22T18:02:19.139Z,41.00
2022-08-22T18:04:52.403Z,41.16
2022-08-22T18:07:27.993Z,40.98
2022-08-22T18:09:59.257Z,41.77
2022-08-22T18:12:34.440Z,41.92
2022-08-22T18:15:09.173Z,41.74
2022-08-22T18:17:40.996Z,42.13
2022-08-22T18:20:15.354Z,41.57
2022-08-22T18:22:48.660Z,40.80
2022-08-22T18:25:32.366Z,40.73
2022-08-22T18:28:03.587Z,42.15
2022-08-22T18:30:36.797Z,42.83
2022-08-22T18:33:11.317Z,42.21
2022-08-22T18:35:44.191Z,42.65
2022-08-22T18:38:22.563Z,42.09
2022-08-22T18:40:54.401Z,42.28
2022-08-22T18:43:35.117Z,42.44
2022-08-22T18:46:25.650Z,42.88
2022-08-22T18:49:14.222Z,42.79
2022-08-22T18:51:41.507Z,42.84
2022-08-22T18:54:37.456Z,43.72
2022-08-22T18:57:24.382Z,43.66
2022-08-22T19:00:03.300Z,44.53
2022-08-22T19:02:56.172Z,44.40
2022-08-22T19:05:41.288Z,44.51
2022-08-22T19:08:49.318Z,43.65
2022-08-22T19:11:37.327Z,44.02
2022-08-22T19:14:34.184Z,44.62
2022-08-22T19:17:22.253Z,44.35
2022-08-22T19:20:14.410Z,44.86
2022-08-22T19:22:41.632Z,44.55
2022-08-22T19:25:17.591Z,44.73
2022-08-22T19:27:47.335Z,44.64
2022-08-22T19:30:38.755Z,45.05
2022-08-22T19:33:07.470Z,44.58
2022-08-22T19:36:04.767Z,45.07
2022-08-22T19:38:52.888Z,44.76
2022-08-22T19:41:43.508Z,45.06
2022-08-22T19:44:13.368Z,44.96
2022-08-22T19:46:42.055Z,44.65
2022-08-22T19:49:27.320Z,44.77
2022-08-22T19:52:26.650Z,44.66
2022-08-22T19:55:00.455Z,45.27
2022-08-22T19:57:38.706Z,45.72
2022-08-22T20:00:09.728Z,45.78
2022-08-22T20:02:50.617Z,45.44
2022-08-22T20:05:28.274Z,44.55
2022-08-22T20:08:18.025Z,44.20
2022-08-22T20:10:57.620Z,45.26
2022-08-22T20:13:27.671Z,46.30
2022-08-22T20:16:13.569Z,46.77
2022-08-22T20:19:15.439Z,47.48
2022-08-22T20:21:51.970Z,48.42
2022-08-22T20:24:25.489Z,48.81
2022-08-22T20:27:13.502Z,49.21
2022-08-22T20:29:47.036Z,49.26
2022-08-22T20:32:17.949Z,49.25
2022-08-22T20:34:46.613Z,49.32
2022-08-22T20:37:32.228Z,49.42
2022-08-22T20:40:53.319Z,49.36
2022-08-22T20:43:11.013Z,49.37
2022-08-22T20:45:47.984Z,49.49
2022-08-22T20:48:15.638Z,49.63
2022-08-22T20:50:42.463Z,49.29
2022-08-22T20:53:15.546Z,49.38
2022-08-22T20:55:52.819Z,49.44
2022-08-22T20:58:22.827Z,49.19
2022-08-22T21:00:53.213Z,49.23
2022-08-22T21:03:33.136Z,48.72
2022-08-22T21:06:12.091Z,49.12
2022-08-22T21:08:39.648Z,49.50
2022-08-22T21:11:27.671Z,48.72
2022-08-22T21:13:55.716Z,49.23
2022-08-22T21:16:31.536Z,48.52
2022-08-22T21:19:03.238Z,49.04
2022-08-22T21:21:32.018Z,49.31
2022-08-22T21:24:02.245Z,49.32
2022-08-22T21:26:35.206Z,49.65
2022-08-22T21:29:05.246Z,49.42
2022-08-22T21:31:35.282Z,49.57
2022-08-22T21:34:02.961Z,49.84
2022-08-22T21:36:31.909Z,50.35
2022-08-22T21:39:01.146Z,50.37
2022-08-22T21:41:37.250Z,50.18
2022-08-22T21:44:27.936Z,50.48
2022-08-22T21:46:55.680Z,50.32
2022-08-22T21:49:24.832Z,50.79
2022-08-22T21:51:52.764Z,51.02
2022-08-22T21:54:32.797Z,50.87
2022-08-22T21:57:16.688Z,51.27
2022-08-22T21:59:51.992Z,51.22
2022-08-22T22:02:39.690Z,50.63
2022-08-22T22:05:09.440Z,49.97
2022-08-22T22:07:38.103Z,48.92
2022-08-22T22:10:08.273Z,49.97
2022-08-22T22:12:38.569Z,50.14
2022-08-22T22:15:06.203Z,51.30
2022-08-22T22:17:33.147Z,51.62
2022-08-22T22:19:59.916Z,52.02
2022-08-22T22:22:26.657Z,51.84
2022-08-22T22:24:53.350Z,52.19
2022-08-22T22:27:20.338Z,52.24
2022-08-22T22:29:48.387Z,52.00
2022-08-22T22:32:15.264Z,51.83
2022-08-22T22:34:42.027Z,51.65
2022-08-22T22:37:11.764Z,51.78
2022-08-22T22:39:38.829Z,51.93
2022-08-22T22:42:05.954Z,52.16
2022-08-22T22:44:32.785Z,51.63
2022-08-22T22:47:02.368Z,51.05
2022-08-22T22:49:29.450Z,50.57
2022-08-22T22:51:56.506Z,50.33
2022-08-22T22:54:27.176Z,50.87
2022-08-22T22:56:54.798Z,51.73
2022-08-22T22:59:24.573Z,51.99
2022-08-22T23:02:05.097Z,52.42
2022-08-22T23:04:33.838Z,53.03
2022-08-22T23:07:00.829Z,52.53
2022-08-22T23:09:38.418Z,52.50
2022-08-22T23:12:12.573Z,53.62
2022-08-22T23:14:39.295Z,54.23
2022-08-22T23:17:07.998Z,54.63
2022-08-22T23:19:35.650Z,54.14
2022-08-22T23:22:02.337Z,53.87
2022-08-22T23:24:31.103Z,53.60
2022-08-22T23:27:00.029Z,52.96
2022-08-22T23:29:26.915Z,52.40
2022-08-22T23:31:55.729Z,53.09
2022-08-22T23:34:26.210Z,53.69
2022-08-22T23:36:55.792Z,54.67
2022-08-22T23:39:24.385Z,54.96
2022-08-22T23:41:52.106Z,55.06
2022-08-22T23:44:21.083Z,54.93
2022-08-22T23:46:47.758Z,54.83
2022-08-22T23:49:15.643Z,54.17
2022-08-22T23:51:44.905Z,53.16
2022-08-22T23:54:12.367Z,52.79
2022-08-22T23:56:41.381Z,52.99
2022-08-22T23:59:09.469Z,54.38
